#dbistima — V2PX5 — position and weather

sailwx.info

Track history (hours):
 
Tides and Currents Weather Stations Pressure Air Temp Water Temp Dewpoint Dewpoint Depression Visibility Wind Speed Wind Dir Waves Ship Positions

#dbistima

Last reported at 2014-Sep-16 10:25 UTC. Time now 2014-Sep-16 19:30 UTC.
Position N 56°03' E 011°50'.

MMSI: 304010972.

Date/timePositionNaut miles runAvg speedWind from/ knotsBaromVisibWave heightAir tempDewpointWater temp
2014-Sep-16 10:25N 56°03' E 011°50'0 0.0
2014-Sep-16 09:25N 56°03' E 011°50'0 0.0
2014-Sep-16 08:31N 56°03' E 011°50'0 0.0
2014-Sep-16 07:31N 56°03' E 011°50'0 0.0
2014-Sep-16 06:19N 56°03' E 011°50'0 0.0
2014-Sep-16 05:19N 56°03' E 011°50'0 0.0
2014-Sep-16 04:31N 56°03' E 011°50'0 0.0
2014-Sep-16 03:31N 56°03' E 011°50'0 0.0
2014-Sep-16 02:31N 56°03' E 011°50'0 0.0
2014-Sep-16 01:25N 56°03' E 011°50'0 0.0
2014-Sep-16 00:31N 56°03' E 011°50'  
2014-Sep-13 02:19N 56°03' E 011°50'0 0.0
2014-Sep-12 18:31N 56°03' E 011°50'0 0.0
2014-Sep-12 17:31N 56°03' E 011°50'0 0.0
2014-Sep-12 08:19N 56°02' E 011°50'7 8.9
2014-Sep-12 07:28N 55°55' E 011°50'7 7.4
2014-Sep-12 06:33N 55°58' E 012°01'0 0.0
2014-Sep-12 05:32N 55°58' E 012°01'0 0.0
2014-Sep-12 04:32N 55°58' E 012°01'0 0.0
2014-Sep-12 03:32N 55°58' E 012°01'0 0.0
2014-Sep-12 02:29N 55°58' E 012°01'0 0.0
2014-Sep-12 01:32N 55°58' E 012°01'0 0.0
2014-Sep-12 00:32N 55°58' E 012°01'0 0.0
2014-Sep-11 23:32N 55°58' E 012°01'0 0.0
2014-Sep-11 22:32N 55°58' E 012°01'0 0.0
2014-Sep-11 21:32N 55°58' E 012°01'0 0.0
2014-Sep-11 20:32N 55°58' E 012°01'0 0.0
2014-Sep-11 19:32N 55°58' E 012°01'0 0.2
2014-Sep-11 18:32N 55°58' E 012°00'0 0.1
2014-Sep-11 16:14N 55°58' E 012°01'0 0.0
2014-Sep-11 13:32N 55°58' E 012°01'0 0.0
2014-Sep-11 12:05N 55°58' E 012°01'0 0.0
2014-Sep-11 11:32N 55°58' E 012°01'0 0.0
2014-Sep-11 10:26N 55°58' E 012°01'0 0.0
2014-Sep-11 08:20N 55°58' E 012°01'0 0.0
2014-Sep-11 07:26N 55°58' E 012°01'0 0.0
2014-Sep-11 06:33N 55°58' E 012°01'157 5.8
2014-Sep-10 03:23N 53°55' E 009°11'2 2.4
2014-Sep-10 02:33N 53°53' E 009°09'10 8.0
2014-Sep-10 01:19N 53°48' E 009°23'6 8.4
2014-Sep-10 00:33N 53°43' E 009°29'9 8.7
2014-Sep-09 23:33N 53°35' E 009°37'10 9.8
2014-Sep-09 22:33N 53°32' E 009°53'1 1.3
2014-Sep-09 21:33N 53°31' E 009°54'0 0.0
2014-Sep-09 20:33N 53°31' E 009°54'0 0.0
2014-Sep-09 19:33N 53°31' E 009°54'0 0.0
2014-Sep-09 18:33N 53°31' E 009°54'0 0.0
2014-Sep-09 17:33N 53°31' E 009°54'0 0.0
2014-Sep-09 16:27N 53°31' E 009°54'0 0.0
2014-Sep-09 15:33N 53°31' E 009°54'0 0.0
2014-Sep-09 14:33N 53°31' E 009°54'0 0.0
2014-Sep-09 13:33N 53°31' E 009°54'0 0.0
2014-Sep-09 12:33N 53°31' E 009°54'0 0.0
2014-Sep-09 11:33N 53°31' E 009°54'0 0.0
2014-Sep-09 10:33N 53°31' E 009°54'0 0.0
2014-Sep-09 09:33N 53°31' E 009°54'0 0.0
2014-Sep-09 08:30N 53°31' E 009°54'0 0.0
2014-Sep-09 07:33N 53°31' E 009°54'0 0.0
2014-Sep-09 06:33N 53°31' E 009°54'0 0.0
2014-Sep-09 05:33N 53°31' E 009°54'0 0.0
2014-Sep-09 04:30N 53°31' E 009°54'0 0.0
2014-Sep-09 03:33N 53°31' E 009°54'0 0.0
2014-Sep-09 02:33N 53°31' E 009°54'0 0.0
2014-Sep-09 01:33N 53°31' E 009°54'0 0.0
2014-Sep-09 00:33N 53°31' E 009°54'0 0.0
2014-Sep-08 23:33N 53°31' E 009°54'0 0.0
2014-Sep-08 22:33N 53°31' E 009°54'0 0.0
2014-Sep-08 21:33N 53°31' E 009°54'0 0.0
2014-Sep-08 20:33N 53°31' E 009°54'0 0.0
2014-Sep-08 19:33N 53°31' E 009°54'0 0.0
2014-Sep-08 18:27N 53°31' E 009°54'0 0.0
2014-Sep-08 17:33N 53°31' E 009°54'0 0.0
2014-Sep-08 16:33N 53°31' E 009°54'4 4.2
2014-Sep-08 15:33N 53°33' E 009°48'8 8.4
2014-Sep-08 14:33N 53°36' E 009°34'10 9.5
2014-Sep-08 13:28N 53°45' E 009°24'1211.2
2014-Sep-08 12:21N 53°53' E 009°08'7 8.6
2014-Sep-08 11:33N 53°51' E 008°57'8 8.3
2014-Sep-08 10:33N 53°52' E 008°43'9 8.6
2014-Sep-08 09:33N 53°58' E 008°32'8 7.9
2014-Sep-08 08:33N 53°59' E 008°19'10 8.5
2014-Sep-08 07:24N 53°58' E 008°02'7 8.2
2014-Sep-08 06:33N 53°57' E 007°51'63 9.0
2014-Sep-07 23:33N 53°41' E 006°07'2110.5
2014-Sep-07 21:33N 53°35' E 005°33'1111.0
2014-Sep-07 20:33N 53°31' E 005°16'1211.7
2014-Sep-07 19:33N 53°27' E 004°57'1111.2
2014-Sep-07 18:33N 53°21' E 004°42'1211.6
2014-Sep-07 17:32N 53°11' E 004°31'2411.9
2014-Sep-07 15:32N 52°50' E 004°12'10011.9
2014-Sep-07 07:11N 51°37' E 002°22'6 9.8
2014-Sep-07 06:33N 51°32' E 002°15'9 9.4
2014-Sep-07 05:33N 51°25' E 002°05'9 8.6
2014-Sep-07 04:33N 51°25' E 001°51'1111.5
2014-Sep-07 03:33N 51°28' E 001°33'1312.7
2014-Sep-07 02:33N 51°29' E 001°13'1312.9
2014-Sep-07 01:33N 51°29' E 000°52'1313.5
2014-Sep-07 00:33N 51°30' E 000°31'10 9.6
2014-Sep-06 23:33N 51°28' E 000°16'4 3.5
2014-Sep-06 22:33N 51°29' E 000°10'0 0.0
2014-Sep-06 21:33N 51°29' E 000°10'0 0.0
2014-Sep-06 20:33N 51°29' E 000°10'0 0.0
2014-Sep-06 19:33N 51°29' E 000°10'0 0.0
2014-Sep-06 18:33N 51°29' E 000°10'0 0.0
2014-Sep-06 17:33N 51°29' E 000°10'0 0.0
2014-Sep-06 16:33N 51°29' E 000°10'0 0.0
2014-Sep-06 15:33N 51°29' E 000°10'0 0.0
2014-Sep-06 14:33N 51°29' E 000°10'0 0.0
2014-Sep-06 13:33N 51°29' E 000°10'0 0.0
2014-Sep-06 12:33N 51°29' E 000°10'0 0.0
2014-Sep-06 11:33N 51°29' E 000°10'0 0.0
2014-Sep-06 10:33N 51°29' E 000°10'  
Track history (hours):
 
Tides and Currents Weather Stations Pressure Air Temp Water Temp Dewpoint Dewpoint Depression Visibility Wind Speed Wind Dir Waves Ship Positions

#dbistima

Last reported at 2014-Sep-16 10:25 UTC. Time now 2014-Sep-16 19:30 UTC.
Position N 56°03' E 011°50'.

MMSI: 304010972.

Date/timePositionNaut miles runAvg speedWind from/ knotsBaromVisibWave heightAir tempDewpointWater temp
2014-Sep-16 10:25N 56°03' E 011°50'0 0.0
2014-Sep-16 09:25N 56°03' E 011°50'0 0.0
2014-Sep-16 08:31N 56°03' E 011°50'0 0.0
2014-Sep-16 07:31N 56°03' E 011°50'0 0.0
2014-Sep-16 06:19N 56°03' E 011°50'0 0.0
2014-Sep-16 05:19N 56°03' E 011°50'0 0.0
2014-Sep-16 04:31N 56°03' E 011°50'0 0.0
2014-Sep-16 03:31N 56°03' E 011°50'0 0.0
2014-Sep-16 02:31N 56°03' E 011°50'0 0.0
2014-Sep-16 01:25N 56°03' E 011°50'0 0.0
2014-Sep-16 00:31N 56°03' E 011°50'  
2014-Sep-13 02:19N 56°03' E 011°50'0 0.0
2014-Sep-12 18:31N 56°03' E 011°50'0 0.0
2014-Sep-12 17:31N 56°03' E 011°50'0 0.0
2014-Sep-12 08:19N 56°02' E 011°50'7 8.9
2014-Sep-12 07:28N 55°55' E 011°50'7 7.4
2014-Sep-12 06:33N 55°58' E 012°01'0 0.0
2014-Sep-12 05:32N 55°58' E 012°01'0 0.0
2014-Sep-12 04:32N 55°58' E 012°01'0 0.0
2014-Sep-12 03:32N 55°58' E 012°01'0 0.0
2014-Sep-12 02:29N 55°58' E 012°01'0 0.0
2014-Sep-12 01:32N 55°58' E 012°01'0 0.0
2014-Sep-12 00:32N 55°58' E 012°01'0 0.0
2014-Sep-11 23:32N 55°58' E 012°01'0 0.0
2014-Sep-11 22:32N 55°58' E 012°01'0 0.0
2014-Sep-11 21:32N 55°58' E 012°01'0 0.0
2014-Sep-11 20:32N 55°58' E 012°01'0 0.0
2014-Sep-11 19:32N 55°58' E 012°01'0 0.2
2014-Sep-11 18:32N 55°58' E 012°00'0 0.1
2014-Sep-11 16:14N 55°58' E 012°01'0 0.0
2014-Sep-11 13:32N 55°58' E 012°01'0 0.0
2014-Sep-11 12:05N 55°58' E 012°01'0 0.0
2014-Sep-11 11:32N 55°58' E 012°01'0 0.0
2014-Sep-11 10:26N 55°58' E 012°01'0 0.0
2014-Sep-11 08:20N 55°58' E 012°01'0 0.0
2014-Sep-11 07:26N 55°58' E 012°01'0 0.0
2014-Sep-11 06:33N 55°58' E 012°01'157 5.8
2014-Sep-10 03:23N 53°55' E 009°11'2 2.4
2014-Sep-10 02:33N 53°53' E 009°09'10 8.0
2014-Sep-10 01:19N 53°48' E 009°23'6 8.4
2014-Sep-10 00:33N 53°43' E 009°29'9 8.7
2014-Sep-09 23:33N 53°35' E 009°37'10 9.8
2014-Sep-09 22:33N 53°32' E 009°53'1 1.3
2014-Sep-09 21:33N 53°31' E 009°54'0 0.0
2014-Sep-09 20:33N 53°31' E 009°54'0 0.0
2014-Sep-09 19:33N 53°31' E 009°54'0 0.0
2014-Sep-09 18:33N 53°31' E 009°54'0 0.0
2014-Sep-09 17:33N 53°31' E 009°54'0 0.0
2014-Sep-09 16:27N 53°31' E 009°54'0 0.0
2014-Sep-09 15:33N 53°31' E 009°54'0 0.0
2014-Sep-09 14:33N 53°31' E 009°54'0 0.0
2014-Sep-09 13:33N 53°31' E 009°54'0 0.0
2014-Sep-09 12:33N 53°31' E 009°54'0 0.0
2014-Sep-09 11:33N 53°31' E 009°54'0 0.0
2014-Sep-09 10:33N 53°31' E 009°54'0 0.0
2014-Sep-09 09:33N 53°31' E 009°54'0 0.0
2014-Sep-09 08:30N 53°31' E 009°54'0 0.0
2014-Sep-09 07:33N 53°31' E 009°54'0 0.0
2014-Sep-09 06:33N 53°31' E 009°54'0 0.0
2014-Sep-09 05:33N 53°31' E 009°54'0 0.0
2014-Sep-09 04:30N 53°31' E 009°54'0 0.0
2014-Sep-09 03:33N 53°31' E 009°54'0 0.0
2014-Sep-09 02:33N 53°31' E 009°54'0 0.0
2014-Sep-09 01:33N 53°31' E 009°54'0 0.0
2014-Sep-09 00:33N 53°31' E 009°54'0 0.0
2014-Sep-08 23:33N 53°31' E 009°54'0 0.0
2014-Sep-08 22:33N 53°31' E 009°54'0 0.0
2014-Sep-08 21:33N 53°31' E 009°54'0 0.0
2014-Sep-08 20:33N 53°31' E 009°54'0 0.0
2014-Sep-08 19:33N 53°31' E 009°54'0 0.0
2014-Sep-08 18:27N 53°31' E 009°54'0 0.0
2014-Sep-08 17:33N 53°31' E 009°54'0 0.0
2014-Sep-08 16:33N 53°31' E 009°54'4 4.2
2014-Sep-08 15:33N 53°33' E 009°48'8 8.4
2014-Sep-08 14:33N 53°36' E 009°34'10 9.5
2014-Sep-08 13:28N 53°45' E 009°24'1211.2
2014-Sep-08 12:21N 53°53' E 009°08'7 8.6
2014-Sep-08 11:33N 53°51' E 008°57'8 8.3
2014-Sep-08 10:33N 53°52' E 008°43'9 8.6
2014-Sep-08 09:33N 53°58' E 008°32'8 7.9
2014-Sep-08 08:33N 53°59' E 008°19'10 8.5
2014-Sep-08 07:24N 53°58' E 008°02'7 8.2
2014-Sep-08 06:33N 53°57' E 007°51'63 9.0
2014-Sep-07 23:33N 53°41' E 006°07'2110.5
2014-Sep-07 21:33N 53°35' E 005°33'1111.0
2014-Sep-07 20:33N 53°31' E 005°16'1211.7
2014-Sep-07 19:33N 53°27' E 004°57'1111.2
2014-Sep-07 18:33N 53°21' E 004°42'1211.6
2014-Sep-07 17:32N 53°11' E 004°31'2411.9
2014-Sep-07 15:32N 52°50' E 004°12'10011.9
2014-Sep-07 07:11N 51°37' E 002°22'6 9.8
2014-Sep-07 06:33N 51°32' E 002°15'9 9.4
2014-Sep-07 05:33N 51°25' E 002°05'9 8.6
2014-Sep-07 04:33N 51°25' E 001°51'1111.5
2014-Sep-07 03:33N 51°28' E 001°33'1312.7
2014-Sep-07 02:33N 51°29' E 001°13'1312.9
2014-Sep-07 01:33N 51°29' E 000°52'1313.5
2014-Sep-07 00:33N 51°30' E 000°31'10 9.6
2014-Sep-06 23:33N 51°28' E 000°16'4 3.5
2014-Sep-06 22:33N 51°29' E 000°10'0 0.0
2014-Sep-06 21:33N 51°29' E 000°10'0 0.0
2014-Sep-06 20:33N 51°29' E 000°10'0 0.0
2014-Sep-06 19:33N 51°29' E 000°10'0 0.0
2014-Sep-06 18:33N 51°29' E 000°10'0 0.0
2014-Sep-06 17:33N 51°29' E 000°10'0 0.0
2014-Sep-06 16:33N 51°29' E 000°10'0 0.0
2014-Sep-06 15:33N 51°29' E 000°10'0 0.0
2014-Sep-06 14:33N 51°29' E 000°10'0 0.0
2014-Sep-06 13:33N 51°29' E 000°10'0 0.0
2014-Sep-06 12:33N 51°29' E 000°10'0 0.0
2014-Sep-06 11:33N 51°29' E 000°10'0 0.0
2014-Sep-06 10:33N 51°29' E 000°10'  

Dump ship's entire track history